Current | Forecast
Updated: 7:00 PM +08 on March 29, 2017
Observed at Sandakan, Malaysia
Temperature 27°C
Humidity 89%
Dew Point 25°C
Wind East at 6 km/h
Pressure 1010 hPa (Steady)
Conditions Mostly Cloudy
Visibility 10.0 kilometers
UV 0 out of 16
Clouds (FEW) : 457 m
(FEW) : 487 m
Mostly Cloudy (BKN) : 8839 m
Yesterday's Maximum 27°C
Yesterday's Minimum 24°C approx.
Yesterday's Cooling Degree Days 13 approx.
Sunrise6:07 AM +08
Sunset6:17 PM +08
Moon Rise6:59 AM +08
Moon Set7:29 PM +08
Moon PhaseMoon Phase
Waxing Crescent
Raw METARMETAR WBKS 291100Z 08003KT 9999 FEW015 FEW016CB BKN290 27/25 Q1010


Monday
. High: 89° F.
Tuesday
. High: 91° F.
Wednesday
. High: 89° F.
Thursday
. High: 91° F.
Friday
. High: 91° F.
Saturday
. High: 91° F.
Sunday
. High: 89° F.
Monday
. High: 91° F.

Units: English | Metric

Find the Weather for any City, State or Zipcode, or Country:

U.S. State List | Severe Weather | Tropical Storms | Ski Conditions
United States | Canada | Central America | South America | Asia | Europe | Australia | Africa | Islands

Weather Underground

© Copyright 2017
The Weather Company, LLC